Jansen, Canada
Current Conditions -  °F | °C
As of 8:00 PM on Monday 20 Oct 2014 (Local Time) from CYXE Reporting Station
Clear Clear  
Wind Chill: 61°   Ceiling: Unl
Heat Index: 61°   Visibility: 15mi
Dew Point: 43°   Wind: 12mph
Humidity: 52%   Direction: 170°S
Pressure: 29.64"   Gusts: NA
Location:  51.78°N, 104.72°W
Report Text: CYXE 210200Z 17010KT 15SM SKC 16/06 A2964 RMK SLP048 DENSITY ALT 2400FT
Loading
Personal Weather Stations






























Interactive Weather Map
Tropical Storm Tracking
New forecast layout! Learn more

10-Day Weather Forecast

Advertisements
Track Severe Weather on mobile